Kinrikimaru — JL6545 — position and weather

sailwx.info

Track history (hours):
 
Tides and Currents Weather Stations Pressure Air Temp Water Temp Dewpoint Dewpoint Depression Visibility Wind Speed Wind Dir Waves Ship Positions

Kinrikimaru

Last reported at 2015-Mar-20 09:33 UTC. Time now 2015-Mar-29 20:52 UTC.
Position N 34°37' E 134°57'.
Warning: this ship's position is 9 days out of date.

Length 76 m; draft 4 m.

Type: Cargo ship. MMSI: 431500615.

Date/timePositionNaut miles runAvg speedWind from/ knotsBaromVisibWave heightAir tempDewpointWater temp
2015-Mar-20 09:33N 34°37' E 134°57'1413.8
2015-Mar-20 08:33N 34°36' E 135°13'1010.0
2015-Mar-20 07:33N 34°35' E 135°26'0 0.0
2015-Mar-20 06:30N 34°35' E 135°26'0 0.0
2015-Mar-20 02:21N 34°35' E 135°26'4 2.4
2015-Mar-20 00:33N 34°36' E 135°21'1312.6
2015-Mar-19 23:33N 34°35' E 135°05'10 8.8
2015-Mar-19 22:25N 34°34' E 134°53'  
2015-Mar-15 04:33N 34°37' E 134°58'1312.7
2015-Mar-15 03:33N 34°36' E 135°14'10 9.7
2015-Mar-15 02:32N 34°35' E 135°26'0 0.0
2015-Mar-15 01:28N 34°35' E 135°26'0 0.0
2015-Mar-15 00:22N 34°35' E 135°26'0 0.0
2015-Mar-14 23:28N 34°35' E 135°26'0 0.0
2015-Mar-14 22:28N 34°35' E 135°26'0 0.1
2015-Mar-14 21:24N 34°35' E 135°26'0 0.3
2015-Mar-14 20:24N 34°35' E 135°25'0 0.1
2015-Mar-14 19:30N 34°35' E 135°25'0 0.0
2015-Mar-14 18:30N 34°35' E 135°25'0 0.0
2015-Mar-14 17:30N 34°35' E 135°25'0 0.0
2015-Mar-14 16:30N 34°35' E 135°25'0 0.0
2015-Mar-14 15:24N 34°35' E 135°25'0 0.0
2015-Mar-14 14:24N 34°35' E 135°25'0 0.0
2015-Mar-14 13:30N 34°35' E 135°25'0 0.0
2015-Mar-14 12:24N 34°35' E 135°25'5 6.1
2015-Mar-14 11:33N 34°34' E 135°19'1312.5
2015-Mar-14 10:33N 34°25' E 135°09'1211.9
2015-Mar-14 09:32N 34°15' E 134°59'  
2015-Mar-11 20:16N 33°53' E 130°19'2313.0
2015-Mar-11 18:33N 33°41' E 129°56'  
Track history (hours):
 
Tides and Currents Weather Stations Pressure Air Temp Water Temp Dewpoint Dewpoint Depression Visibility Wind Speed Wind Dir Waves Ship Positions

Kinrikimaru

Last reported at 2015-Mar-20 09:33 UTC. Time now 2015-Mar-29 20:52 UTC.
Position N 34°37' E 134°57'.
Warning: this ship's position is 9 days out of date.

Length 76 m; draft 4 m.

Type: Cargo ship. MMSI: 431500615.

Date/timePositionNaut miles runAvg speedWind from/ knotsBaromVisibWave heightAir tempDewpointWater temp
2015-Mar-20 09:33N 34°37' E 134°57'1413.8
2015-Mar-20 08:33N 34°36' E 135°13'1010.0
2015-Mar-20 07:33N 34°35' E 135°26'0 0.0
2015-Mar-20 06:30N 34°35' E 135°26'0 0.0
2015-Mar-20 02:21N 34°35' E 135°26'4 2.4
2015-Mar-20 00:33N 34°36' E 135°21'1312.6
2015-Mar-19 23:33N 34°35' E 135°05'10 8.8
2015-Mar-19 22:25N 34°34' E 134°53'  
2015-Mar-15 04:33N 34°37' E 134°58'1312.7
2015-Mar-15 03:33N 34°36' E 135°14'10 9.7
2015-Mar-15 02:32N 34°35' E 135°26'0 0.0
2015-Mar-15 01:28N 34°35' E 135°26'0 0.0
2015-Mar-15 00:22N 34°35' E 135°26'0 0.0
2015-Mar-14 23:28N 34°35' E 135°26'0 0.0
2015-Mar-14 22:28N 34°35' E 135°26'0 0.1
2015-Mar-14 21:24N 34°35' E 135°26'0 0.3
2015-Mar-14 20:24N 34°35' E 135°25'0 0.1
2015-Mar-14 19:30N 34°35' E 135°25'0 0.0
2015-Mar-14 18:30N 34°35' E 135°25'0 0.0
2015-Mar-14 17:30N 34°35' E 135°25'0 0.0
2015-Mar-14 16:30N 34°35' E 135°25'0 0.0
2015-Mar-14 15:24N 34°35' E 135°25'0 0.0
2015-Mar-14 14:24N 34°35' E 135°25'0 0.0
2015-Mar-14 13:30N 34°35' E 135°25'0 0.0
2015-Mar-14 12:24N 34°35' E 135°25'5 6.1
2015-Mar-14 11:33N 34°34' E 135°19'1312.5
2015-Mar-14 10:33N 34°25' E 135°09'1211.9
2015-Mar-14 09:32N 34°15' E 134°59'  
2015-Mar-11 20:16N 33°53' E 130°19'2313.0
2015-Mar-11 18:33N 33°41' E 129°56'  

Dump ship's entire track history